sensor_id;sensor_type;location;lat;lon;timestamp;P1;durP1;ratioP1;P2;durP2;ratioP2
23088;SDS011;11713;48.506;8.966;2023-05-20T00:00:24;11.27;;;7.73;;
23088;SDS011;11713;48.506;8.966;2023-05-20T00:02:50;11.40;;;8.10;;
23088;SDS011;11713;48.506;8.966;2023-05-20T00:05:16;11.90;;;8.23;;
23088;SDS011;11713;48.506;8.966;2023-05-20T00:07:41;9.40;;;8.07;;
23088;SDS011;11713;48.506;8.966;2023-05-20T00:10:07;11.00;;;8.23;;
23088;SDS011;11713;48.506;8.966;2023-05-20T00:12:33;12.10;;;7.63;;
23088;SDS011;11713;48.506;8.966;2023-05-20T00:15:00;12.60;;;8.10;;
23088;SDS011;11713;48.506;8.966;2023-05-20T00:17:26;9.07;;;7.50;;
23088;SDS011;11713;48.506;8.966;2023-05-20T00:19:52;12.20;;;7.70;;
23088;SDS011;11713;48.506;8.966;2023-05-20T00:22:18;12.30;;;7.63;;
23088;SDS011;11713;48.506;8.966;2023-05-20T00:24:44;9.63;;;7.50;;
23088;SDS011;11713;48.506;8.966;2023-05-20T00:27:10;8.13;;;7.10;;
23088;SDS011;11713;48.506;8.966;2023-05-20T00:29:36;9.60;;;7.20;;
23088;SDS011;11713;48.506;8.966;2023-05-20T00:32:02;7.17;;;6.40;;
23088;SDS011;11713;48.506;8.966;2023-05-20T00:34:28;8.57;;;6.70;;
23088;SDS011;11713;48.506;8.966;2023-05-20T00:36:53;9.17;;;6.80;;
23088;SDS011;11713;48.506;8.966;2023-05-20T00:39:19;8.97;;;6.33;;
23088;SDS011;11713;48.506;8.966;2023-05-20T00:41:45;8.70;;;6.10;;
23088;SDS011;11713;48.506;8.966;2023-05-20T00:44:11;10.87;;;6.70;;
23088;SDS011;11713;48.506;8.966;2023-05-20T00:46:36;7.63;;;5.87;;
23088;SDS011;11713;48.506;8.966;2023-05-20T00:49:03;7.83;;;6.83;;
23088;SDS011;11713;48.506;8.966;2023-05-20T00:51:30;9.33;;;6.10;;
23088;SDS011;11713;48.506;8.966;2023-05-20T00:53:56;9.33;;;6.73;;
23088;SDS011;11713;48.506;8.966;2023-05-20T00:56:22;8.10;;;6.43;;
23088;SDS011;11713;48.506;8.966;2023-05-20T00:58:49;9.13;;;6.57;;
23088;SDS011;11713;48.506;8.966;2023-05-20T01:01:15;8.63;;;6.17;;
23088;SDS011;11713;48.506;8.966;2023-05-20T01:03:41;8.50;;;6.70;;
23088;SDS011;11713;48.506;8.966;2023-05-20T01:06:07;10.17;;;6.80;;
23088;SDS011;11713;48.506;8.966;2023-05-20T01:08:32;8.17;;;6.10;;
23088;SDS011;11713;48.506;8.966;2023-05-20T01:11:16;8.33;;;7.30;;
23088;SDS011;11713;48.506;8.966;2023-05-20T01:13:46;7.67;;;6.90;;
23088;SDS011;11713;48.506;8.966;2023-05-20T01:16:22;8.40;;;6.93;;
23088;SDS011;11713;48.506;8.966;2023-05-20T01:18:49;8.83;;;7.33;;
23088;SDS011;11713;48.506;8.966;2023-05-20T01:21:19;8.63;;;6.50;;
23088;SDS011;11713;48.506;8.966;2023-05-20T01:23:48;8.90;;;6.80;;
23088;SDS011;11713;48.506;8.966;2023-05-20T01:26:13;10.67;;;7.20;;
23088;SDS011;11713;48.506;8.966;2023-05-20T01:28:40;10.10;;;7.27;;
23088;SDS011;11713;48.506;8.966;2023-05-20T01:31:10;8.83;;;7.00;;
23088;SDS011;11713;48.506;8.966;2023-05-20T01:33:39;7.63;;;6.47;;
23088;SDS011;11713;48.506;8.966;2023-05-20T01:36:06;9.83;;;7.53;;
23088;SDS011;11713;48.506;8.966;2023-05-20T01:38:34;8.53;;;6.60;;
23088;SDS011;11713;48.506;8.966;2023-05-20T01:41:00;9.27;;;7.10;;
23088;SDS011;11713;48.506;8.966;2023-05-20T01:43:29;10.53;;;7.70;;
23088;SDS011;11713;48.506;8.966;2023-05-20T01:45:56;9.30;;;7.07;;
23088;SDS011;11713;48.506;8.966;2023-05-20T01:48:22;9.43;;;7.57;;
23088;SDS011;11713;48.506;8.966;2023-05-20T01:50:50;8.63;;;6.93;;
23088;SDS011;11713;48.506;8.966;2023-05-20T01:53:17;10.17;;;7.10;;
23088;SDS011;11713;48.506;8.966;2023-05-20T01:56:09;10.03;;;6.87;;
23088;SDS011;11713;48.506;8.966;2023-05-20T01:58:35;10.50;;;7.20;;
23088;SDS011;11713;48.506;8.966;2023-05-20T02:01:01;8.53;;;6.93;;
23088;SDS011;11713;48.506;8.966;2023-05-20T02:03:29;8.63;;;6.67;;
23088;SDS011;11713;48.506;8.966;2023-05-20T02:05:55;8.90;;;6.60;;
23088;SDS011;11713;48.506;8.966;2023-05-20T02:08:21;9.33;;;6.53;;
23088;SDS011;11713;48.506;8.966;2023-05-20T02:10:47;8.73;;;6.47;;
23088;SDS011;11713;48.506;8.966;2023-05-20T02:13:13;8.63;;;5.63;;
23088;SDS011;11713;48.506;8.966;2023-05-20T02:15:40;8.40;;;5.33;;
23088;SDS011;11713;48.506;8.966;2023-05-20T02:18:06;7.00;;;6.23;;
23088;SDS011;11713;48.506;8.966;2023-05-20T02:20:35;8.03;;;6.80;;
23088;SDS011;11713;48.506;8.966;2023-05-20T02:23:01;7.40;;;6.10;;
23088;SDS011;11713;48.506;8.966;2023-05-20T02:25:30;7.83;;;6.30;;
23088;SDS011;11713;48.506;8.966;2023-05-20T02:27:56;9.80;;;6.60;;
23088;SDS011;11713;48.506;8.966;2023-05-20T02:30:22;7.87;;;7.17;;
23088;SDS011;11713;48.506;8.966;2023-05-20T02:32:48;7.10;;;6.40;;
23088;SDS011;11713;48.506;8.966;2023-05-20T02:35:13;9.23;;;6.73;;
23088;SDS011;11713;48.506;8.966;2023-05-20T02:37:40;7.47;;;6.37;;
23088;SDS011;11713;48.506;8.966;2023-05-20T02:40:09;8.87;;;6.60;;
23088;SDS011;11713;48.506;8.966;2023-05-20T02:42:37;10.37;;;6.40;;
23088;SDS011;11713;48.506;8.966;2023-05-20T02:45:03;7.20;;;5.97;;
23088;SDS011;11713;48.506;8.966;2023-05-20T02:47:29;8.17;;;6.47;;
23088;SDS011;11713;48.506;8.966;2023-05-20T02:49:55;9.93;;;7.30;;
23088;SDS011;11713;48.506;8.966;2023-05-20T02:52:20;8.67;;;6.60;;
23088;SDS011;11713;48.506;8.966;2023-05-20T02:54:48;9.53;;;6.47;;
23088;SDS011;11713;48.506;8.966;2023-05-20T02:57:14;9.40;;;6.43;;
23088;SDS011;11713;48.506;8.966;2023-05-20T02:59:40;8.77;;;6.40;;
23088;SDS011;11713;48.506;8.966;2023-05-20T03:02:06;7.13;;;6.17;;
23088;SDS011;11713;48.506;8.966;2023-05-20T03:04:32;11.80;;;7.17;;
23088;SDS011;11713;48.506;8.966;2023-05-20T03:06:57;8.83;;;7.23;;
23088;SDS011;11713;48.506;8.966;2023-05-20T03:09:23;7.57;;;6.80;;
23088;SDS011;11713;48.506;8.966;2023-05-20T03:11:49;9.67;;;6.30;;
23088;SDS011;11713;48.506;8.966;2023-05-20T03:14:15;7.20;;;6.50;;
23088;SDS011;11713;48.506;8.966;2023-05-20T03:16:41;6.83;;;5.63;;
23088;SDS011;11713;48.506;8.966;2023-05-20T03:19:07;7.60;;;6.33;;
23088;SDS011;11713;48.506;8.966;2023-05-20T03:21:34;8.87;;;6.50;;
23088;SDS011;11713;48.506;8.966;2023-05-20T03:24:00;7.43;;;6.70;;
23088;SDS011;11713;48.506;8.966;2023-05-20T03:26:25;10.30;;;6.67;;
23088;SDS011;11713;48.506;8.966;2023-05-20T03:28:51;7.43;;;6.67;;
23088;SDS011;11713;48.506;8.966;2023-05-20T03:31:17;7.93;;;6.50;;
23088;SDS011;11713;48.506;8.966;2023-05-20T03:33:43;10.43;;;6.87;;
23088;SDS011;11713;48.506;8.966;2023-05-20T03:36:10;7.87;;;7.07;;
23088;SDS011;11713;48.506;8.966;2023-05-20T03:38:36;9.70;;;7.20;;
23088;SDS011;11713;48.506;8.966;2023-05-20T03:41:02;8.60;;;6.43;;
23088;SDS011;11713;48.506;8.966;2023-05-20T03:43:28;8.80;;;6.83;;
23088;SDS011;11713;48.506;8.966;2023-05-20T03:45:55;9.77;;;6.90;;
23088;SDS011;11713;48.506;8.966;2023-05-20T03:48:21;8.07;;;6.53;;
23088;SDS011;11713;48.506;8.966;2023-05-20T03:50:48;7.00;;;6.30;;
23088;SDS011;11713;48.506;8.966;2023-05-20T03:53:15;8.33;;;6.70;;
23088;SDS011;11713;48.506;8.966;2023-05-20T03:55:41;8.27;;;6.63;;
23088;SDS011;11713;48.506;8.966;2023-05-20T03:58:09;8.07;;;6.77;;
23088;SDS011;11713;48.506;8.966;2023-05-20T04:00:35;9.30;;;6.50;;
23088;SDS011;11713;48.506;8.966;2023-05-20T04:03:01;7.90;;;6.97;;
23088;SDS011;11713;48.506;8.966;2023-05-20T04:05:27;8.23;;;6.37;;
23088;SDS011;11713;48.506;8.966;2023-05-20T04:07:54;7.73;;;6.43;;
23088;SDS011;11713;48.506;8.966;2023-05-20T04:10:22;8.17;;;6.27;;
23088;SDS011;11713;48.506;8.966;2023-05-20T04:12:49;8.60;;;6.97;;
23088;SDS011;11713;48.506;8.966;2023-05-20T04:15:17;8.23;;;6.53;;
23088;SDS011;11713;48.506;8.966;2023-05-20T04:17:55;8.37;;;6.77;;
23088;SDS011;11713;48.506;8.966;2023-05-20T04:20:21;8.13;;;6.80;;
23088;SDS011;11713;48.506;8.966;2023-05-20T04:22:50;8.87;;;6.93;;
23088;SDS011;11713;48.506;8.966;2023-05-20T04:25:16;8.60;;;6.90;;
23088;SDS011;11713;48.506;8.966;2023-05-20T04:27:42;7.40;;;6.60;;
23088;SDS011;11713;48.506;8.966;2023-05-20T04:30:08;7.23;;;6.43;;
23088;SDS011;11713;48.506;8.966;2023-05-20T04:32:38;8.00;;;6.43;;
23088;SDS011;11713;48.506;8.966;2023-05-20T04:35:04;7.50;;;6.40;;
23088;SDS011;11713;48.506;8.966;2023-05-20T04:37:36;13.97;;;6.57;;
23088;SDS011;11713;48.506;8.966;2023-05-20T04:40:05;9.17;;;6.40;;
23088;SDS011;11713;48.506;8.966;2023-05-20T04:42:33;7.27;;;6.00;;
23088;SDS011;11713;48.506;8.966;2023-05-20T04:45:00;8.97;;;6.43;;
23088;SDS011;11713;48.506;8.966;2023-05-20T04:47:33;7.43;;;6.03;;
23088;SDS011;11713;48.506;8.966;2023-05-20T04:50:04;6.43;;;5.83;;
23088;SDS011;11713;48.506;8.966;2023-05-20T04:52:35;6.97;;;5.67;;
23088;SDS011;11713;48.506;8.966;2023-05-20T04:55:05;7.27;;;5.83;;
23088;SDS011;11713;48.506;8.966;2023-05-20T04:57:35;7.33;;;5.87;;
23088;SDS011;11713;48.506;8.966;2023-05-20T05:00:04;9.33;;;5.87;;
23088;SDS011;11713;48.506;8.966;2023-05-20T05:02:35;8.13;;;5.90;;
23088;SDS011;11713;48.506;8.966;2023-05-20T05:05:02;6.53;;;5.17;;
23088;SDS011;11713;48.506;8.966;2023-05-20T05:07:29;6.57;;;5.97;;
23088;SDS011;11713;48.506;8.966;2023-05-20T05:09:57;8.40;;;5.23;;
23088;SDS011;11713;48.506;8.966;2023-05-20T05:12:22;7.83;;;5.70;;
23088;SDS011;11713;48.506;8.966;2023-05-20T05:14:48;9.40;;;6.10;;
23088;SDS011;11713;48.506;8.966;2023-05-20T05:17:14;9.40;;;5.93;;
23088;SDS011;11713;48.506;8.966;2023-05-20T05:19:40;7.77;;;5.93;;
23088;SDS011;11713;48.506;8.966;2023-05-20T05:22:06;8.87;;;5.80;;
23088;SDS011;11713;48.506;8.966;2023-05-20T05:24:33;8.70;;;6.50;;
23088;SDS011;11713;48.506;8.966;2023-05-20T05:26:59;8.73;;;6.47;;
23088;SDS011;11713;48.506;8.966;2023-05-20T05:29:25;7.00;;;6.27;;
23088;SDS011;11713;48.506;8.966;2023-05-20T05:31:51;6.30;;;5.70;;
23088;SDS011;11713;48.506;8.966;2023-05-20T05:34:17;8.30;;;5.73;;
23088;SDS011;11713;48.506;8.966;2023-05-20T05:36:43;11.50;;;5.90;;
23088;SDS011;11713;48.506;8.966;2023-05-20T05:39:09;6.40;;;5.63;;
23088;SDS011;11713;48.506;8.966;2023-05-20T05:41:38;6.67;;;5.83;;
23088;SDS011;11713;48.506;8.966;2023-05-20T05:44:05;7.10;;;5.57;;
23088;SDS011;11713;48.506;8.966;2023-05-20T05:46:31;8.70;;;5.77;;
23088;SDS011;11713;48.506;8.966;2023-05-20T05:48:57;8.60;;;5.97;;
23088;SDS011;11713;48.506;8.966;2023-05-20T05:51:23;6.40;;;5.80;;
23088;SDS011;11713;48.506;8.966;2023-05-20T05:53:53;6.87;;;6.17;;
23088;SDS011;11713;48.506;8.966;2023-05-20T05:56:19;7.87;;;5.90;;
23088;SDS011;11713;48.506;8.966;2023-05-20T05:58:45;5.80;;;5.20;;
23088;SDS011;11713;48.506;8.966;2023-05-20T06:01:12;5.90;;;5.30;;
23088;SDS011;11713;48.506;8.966;2023-05-20T06:03:38;7.23;;;5.50;;
23088;SDS011;11713;48.506;8.966;2023-05-20T06:06:05;7.83;;;5.63;;
23088;SDS011;11713;48.506;8.966;2023-05-20T06:08:31;8.47;;;6.17;;
23088;SDS011;11713;48.506;8.966;2023-05-20T06:10:57;6.50;;;5.80;;
23088;SDS011;11713;48.506;8.966;2023-05-20T06:13:23;7.90;;;5.67;;
23088;SDS011;11713;48.506;8.966;2023-05-20T06:15:49;5.83;;;4.93;;
23088;SDS011;11713;48.506;8.966;2023-05-20T06:18:15;6.23;;;4.87;;
23088;SDS011;11713;48.506;8.966;2023-05-20T06:20:41;5.70;;;5.10;;
23088;SDS011;11713;48.506;8.966;2023-05-20T06:23:07;6.40;;;5.03;;
23088;SDS011;11713;48.506;8.966;2023-05-20T06:25:41;7.47;;;5.03;;
23088;SDS011;11713;48.506;8.966;2023-05-20T06:28:07;7.23;;;5.33;;
23088;SDS011;11713;48.506;8.966;2023-05-20T06:30:33;6.10;;;5.50;;
23088;SDS011;11713;48.506;8.966;2023-05-20T06:33:00;5.80;;;5.13;;
23088;SDS011;11713;48.506;8.966;2023-05-20T06:35:25;6.00;;;5.40;;
23088;SDS011;11713;48.506;8.966;2023-05-20T06:37:51;7.87;;;6.40;;
23088;SDS011;11713;48.506;8.966;2023-05-20T06:40:17;11.67;;;8.33;;
23088;SDS011;11713;48.506;8.966;2023-05-20T06:42:43;6.70;;;5.90;;
23088;SDS011;11713;48.506;8.966;2023-05-20T06:45:09;6.00;;;5.23;;
23088;SDS011;11713;48.506;8.966;2023-05-20T06:47:40;5.67;;;4.70;;
23088;SDS011;11713;48.506;8.966;2023-05-20T06:50:07;5.67;;;4.80;;
23088;SDS011;11713;48.506;8.966;2023-05-20T06:52:34;7.27;;;4.27;;
23088;SDS011;11713;48.506;8.966;2023-05-20T06:55:00;5.07;;;4.57;;
23088;SDS011;11713;48.506;8.966;2023-05-20T06:57:27;5.80;;;4.20;;
23088;SDS011;11713;48.506;8.966;2023-05-20T06:59:53;7.43;;;5.00;;
23088;SDS011;11713;48.506;8.966;2023-05-20T07:02:20;5.23;;;4.43;;
23088;SDS011;11713;48.506;8.966;2023-05-20T07:04:47;6.83;;;4.77;;
23088;SDS011;11713;48.506;8.966;2023-05-20T07:07:13;5.60;;;5.03;;
23088;SDS011;11713;48.506;8.966;2023-05-20T07:09:39;5.67;;;5.03;;
23088;SDS011;11713;48.506;8.966;2023-05-20T07:12:06;5.97;;;4.93;;
23088;SDS011;11713;48.506;8.966;2023-05-20T07:14:32;5.23;;;4.73;;
23088;SDS011;11713;48.506;8.966;2023-05-20T07:16:58;5.10;;;4.60;;
23088;SDS011;11713;48.506;8.966;2023-05-20T07:19:23;5.57;;;4.80;;
23088;SDS011;11713;48.506;8.966;2023-05-20T07:21:49;5.50;;;4.90;;
23088;SDS011;11713;48.506;8.966;2023-05-20T07:24:34;5.10;;;4.60;;
23088;SDS011;11713;48.506;8.966;2023-05-20T07:27:02;5.87;;;5.00;;
23088;SDS011;11713;48.506;8.966;2023-05-20T07:29:28;5.83;;;5.17;;
23088;SDS011;11713;48.506;8.966;2023-05-20T07:31:55;4.83;;;4.30;;
23088;SDS011;11713;48.506;8.966;2023-05-20T07:34:20;6.43;;;5.20;;
23088;SDS011;11713;48.506;8.966;2023-05-20T07:36:47;5.43;;;4.90;;
23088;SDS011;11713;48.506;8.966;2023-05-20T07:39:15;6.27;;;5.27;;
23088;SDS011;11713;48.506;8.966;2023-05-20T07:41:41;7.60;;;5.50;;
23088;SDS011;11713;48.506;8.966;2023-05-20T07:44:07;5.67;;;4.97;;
23088;SDS011;11713;48.506;8.966;2023-05-20T07:46:35;5.63;;;5.13;;
23088;SDS011;11713;48.506;8.966;2023-05-20T07:49:04;5.50;;;5.00;;
23088;SDS011;11713;48.506;8.966;2023-05-20T07:51:30;5.80;;;5.30;;
23088;SDS011;11713;48.506;8.966;2023-05-20T07:53:56;5.80;;;5.00;;
23088;SDS011;11713;48.506;8.966;2023-05-20T07:56:22;7.00;;;5.78;;
23088;SDS011;11713;48.506;8.966;2023-05-20T07:58:52;6.33;;;5.33;;
23088;SDS011;11713;48.506;8.966;2023-05-20T08:01:21;6.90;;;5.47;;
23088;SDS011;11713;48.506;8.966;2023-05-20T08:03:47;6.25;;;5.30;;
23088;SDS011;11713;48.506;8.966;2023-05-20T08:06:15;5.40;;;4.90;;
23088;SDS011;11713;48.506;8.966;2023-05-20T08:08:42;5.63;;;5.13;;
23088;SDS011;11713;48.506;8.966;2023-05-20T08:11:16;5.60;;;5.10;;
23088;SDS011;11713;48.506;8.966;2023-05-20T08:13:41;8.20;;;5.70;;
23088;SDS011;11713;48.506;8.966;2023-05-20T08:16:08;7.40;;;5.73;;
23088;SDS011;11713;48.506;8.966;2023-05-20T08:18:34;5.93;;;5.30;;
23088;SDS011;11713;48.506;8.966;2023-05-20T08:21:04;5.80;;;5.28;;
23088;SDS011;11713;48.506;8.966;2023-05-20T08:23:34;5.60;;;5.10;;
23088;SDS011;11713;48.506;8.966;2023-05-20T08:26:00;7.30;;;5.30;;
23088;SDS011;11713;48.506;8.966;2023-05-20T08:28:29;6.80;;;5.65;;
23088;SDS011;11713;48.506;8.966;2023-05-20T08:30:56;5.85;;;5.28;;
23088;SDS011;11713;48.506;8.966;2023-05-20T08:33:23;5.97;;;5.40;;
23088;SDS011;11713;48.506;8.966;2023-05-20T08:35:49;5.80;;;5.20;;
23088;SDS011;11713;48.506;8.966;2023-05-20T08:38:15;6.00;;;5.40;;
23088;SDS011;11713;48.506;8.966;2023-05-20T08:40:40;6.50;;;5.75;;
23088;SDS011;11713;48.506;8.966;2023-05-20T08:43:07;6.88;;;5.43;;
23088;SDS011;11713;48.506;8.966;2023-05-20T08:45:36;7.35;;;6.00;;
23088;SDS011;11713;48.506;8.966;2023-05-20T08:48:08;6.35;;;5.25;;
23088;SDS011;11713;48.506;8.966;2023-05-20T08:50:34;6.32;;;5.47;;
23088;SDS011;11713;48.506;8.966;2023-05-20T08:52:59;5.60;;;5.00;;
23088;SDS011;11713;48.506;8.966;2023-05-20T08:55:29;6.50;;;5.00;;
23088;SDS011;11713;48.506;8.966;2023-05-20T08:58:08;6.45;;;4.55;;
23088;SDS011;11713;48.506;8.966;2023-05-20T09:00:34;5.40;;;4.90;;
23088;SDS011;11713;48.506;8.966;2023-05-20T09:03:01;4.82;;;4.38;;
23088;SDS011;11713;48.506;8.966;2023-05-20T09:05:28;5.28;;;4.78;;
23088;SDS011;11713;48.506;8.966;2023-05-20T09:08:07;5.55;;;5.05;;
23088;SDS011;11713;48.506;8.966;2023-05-20T09:10:33;5.35;;;4.85;;
23088;SDS011;11713;48.506;8.966;2023-05-20T09:13:00;5.00;;;4.50;;
23088;SDS011;11713;48.506;8.966;2023-05-20T09:15:28;5.00;;;4.40;;
23088;SDS011;11713;48.506;8.966;2023-05-20T09:17:55;8.68;;;4.93;;
23088;SDS011;11713;48.506;8.966;2023-05-20T09:20:25;5.45;;;4.53;;
23088;SDS011;11713;48.506;8.966;2023-05-20T09:22:51;4.93;;;4.53;;
23088;SDS011;11713;48.506;8.966;2023-05-20T09:25:20;4.90;;;4.50;;
23088;SDS011;11713;48.506;8.966;2023-05-20T09:27:47;6.60;;;4.25;;
23088;SDS011;11713;48.506;8.966;2023-05-20T09:30:17;4.47;;;4.07;;
23088;SDS011;11713;48.506;8.966;2023-05-20T09:32:43;5.00;;;4.38;;
23088;SDS011;11713;48.506;8.966;2023-05-20T09:35:12;4.88;;;4.47;;
23088;SDS011;11713;48.506;8.966;2023-05-20T09:37:39;6.30;;;4.88;;
23088;SDS011;11713;48.506;8.966;2023-05-20T09:40:08;4.80;;;4.40;;
23088;SDS011;11713;48.506;8.966;2023-05-20T09:45:04;5.78;;;5.18;;
23088;SDS011;11713;48.506;8.966;2023-05-20T09:47:34;6.72;;;4.40;;
23088;SDS011;11713;48.506;8.966;2023-05-20T09:50:03;5.15;;;4.60;;
23088;SDS011;11713;48.506;8.966;2023-05-20T09:52:32;5.25;;;4.75;;
23088;SDS011;11713;48.506;8.966;2023-05-20T09:55:03;5.00;;;4.60;;
23088;SDS011;11713;48.506;8.966;2023-05-20T09:57:33;4.65;;;4.25;;
23088;SDS011;11713;48.506;8.966;2023-05-20T09:59:59;5.35;;;4.40;;
23088;SDS011;11713;48.506;8.966;2023-05-20T10:02:26;4.13;;;3.80;;
23088;SDS011;11713;48.506;8.966;2023-05-20T10:04:53;5.03;;;4.53;;
23088;SDS011;11713;48.506;8.966;2023-05-20T10:07:45;4.93;;;4.53;;
23088;SDS011;11713;48.506;8.966;2023-05-20T10:16:16;5.30;;;4.78;;
23088;SDS011;11713;48.506;8.966;2023-05-20T10:19:04;4.90;;;4.50;;
23088;SDS011;11713;48.506;8.966;2023-05-20T10:21:31;4.95;;;4.55;;
23088;SDS011;11713;48.506;8.966;2023-05-20T10:24:07;5.50;;;5.00;;
23088;SDS011;11713;48.506;8.966;2023-05-20T10:26:37;6.30;;;5.30;;
23088;SDS011;11713;48.506;8.966;2023-05-20T10:29:13;5.05;;;4.55;;
23088;SDS011;11713;48.506;8.966;2023-05-20T10:31:43;5.38;;;4.80;;
23088;SDS011;11713;48.506;8.966;2023-05-20T10:34:15;4.97;;;4.57;;
23088;SDS011;11713;48.506;8.966;2023-05-20T10:36:56;5.15;;;4.65;;
23088;SDS011;11713;48.506;8.966;2023-05-20T10:39:29;4.78;;;4.38;;
23088;SDS011;11713;48.506;8.966;2023-05-20T10:42:09;5.22;;;4.38;;
23088;SDS011;11713;48.506;8.966;2023-05-20T10:44:44;4.90;;;4.45;;
23088;SDS011;11713;48.506;8.966;2023-05-20T10:47:11;5.13;;;4.50;;
23088;SDS011;11713;48.506;8.966;2023-05-20T10:49:44;7.53;;;4.68;;
23088;SDS011;11713;48.506;8.966;2023-05-20T10:52:13;4.63;;;4.22;;
23088;SDS011;11713;48.506;8.966;2023-05-20T10:54:45;5.30;;;4.70;;
23088;SDS011;11713;48.506;8.966;2023-05-20T10:57:12;4.43;;;4.03;;
23088;SDS011;11713;48.506;8.966;2023-05-20T10:59:38;4.90;;;4.40;;
23088;SDS011;11713;48.506;8.966;2023-05-20T11:02:03;4.60;;;4.20;;
23088;SDS011;11713;48.506;8.966;2023-05-20T11:04:29;5.72;;;4.78;;
23088;SDS011;11713;48.506;8.966;2023-05-20T11:06:56;5.80;;;4.55;;
23088;SDS011;11713;48.506;8.966;2023-05-20T11:09:23;6.95;;;4.72;;
23088;SDS011;11713;48.506;8.966;2023-05-20T11:11:49;4.50;;;4.10;;
23088;SDS011;11713;48.506;8.966;2023-05-20T11:14:16;5.88;;;4.13;;
23088;SDS011;11713;48.506;8.966;2023-05-20T11:16:44;4.80;;;4.40;;
23088;SDS011;11713;48.506;8.966;2023-05-20T11:19:14;5.10;;;4.13;;
23088;SDS011;11713;48.506;8.966;2023-05-20T11:21:44;4.55;;;4.15;;
23088;SDS011;11713;48.506;8.966;2023-05-20T11:24:12;4.97;;;4.28;;
23088;SDS011;11713;48.506;8.966;2023-05-20T11:26:38;5.13;;;4.13;;
23088;SDS011;11713;48.506;8.966;2023-05-20T11:29:05;5.97;;;4.20;;
23088;SDS011;11713;48.506;8.966;2023-05-20T11:31:32;4.80;;;4.40;;
23088;SDS011;11713;48.506;8.966;2023-05-20T11:33:58;4.15;;;3.75;;
23088;SDS011;11713;48.506;8.966;2023-05-20T11:36:28;7.03;;;4.05;;
23088;SDS011;11713;48.506;8.966;2023-05-20T11:38:58;5.05;;;4.50;;
23088;SDS011;11713;48.506;8.966;2023-05-20T11:41:26;5.05;;;4.30;;
23088;SDS011;11713;48.506;8.966;2023-05-20T11:43:58;4.53;;;4.13;;
23088;SDS011;11713;48.506;8.966;2023-05-20T11:46:25;4.55;;;4.15;;
23088;SDS011;11713;48.506;8.966;2023-05-20T11:48:52;4.55;;;3.90;;
23088;SDS011;11713;48.506;8.966;2023-05-20T11:51:27;4.85;;;4.40;;
23088;SDS011;11713;48.506;8.966;2023-05-20T11:53:58;4.75;;;4.20;;
23088;SDS011;11713;48.506;8.966;2023-05-20T11:56:27;5.30;;;4.80;;
23088;SDS011;11713;48.506;8.966;2023-05-20T11:59:00;9.45;;;5.32;;
23088;SDS011;11713;48.506;8.966;2023-05-20T12:01:30;9.60;;;5.28;;
23088;SDS011;11713;48.506;8.966;2023-05-20T12:04:10;6.35;;;5.40;;
23088;SDS011;11713;48.506;8.966;2023-05-20T12:06:38;6.53;;;4.80;;
23088;SDS011;11713;48.506;8.966;2023-05-20T12:09:07;5.50;;;4.72;;
23088;SDS011;11713;48.506;8.966;2023-05-20T12:11:34;7.18;;;5.88;;
23088;SDS011;11713;48.506;8.966;2023-05-20T12:14:02;5.30;;;4.63;;
23088;SDS011;11713;48.506;8.966;2023-05-20T12:16:29;5.50;;;4.95;;
23088;SDS011;11713;48.506;8.966;2023-05-20T12:18:59;4.60;;;4.07;;
23088;SDS011;11713;48.506;8.966;2023-05-20T12:21:25;4.60;;;4.20;;
23088;SDS011;11713;48.506;8.966;2023-05-20T12:23:52;4.50;;;4.10;;
23088;SDS011;11713;48.506;8.966;2023-05-20T12:26:25;4.20;;;3.80;;
23088;SDS011;11713;48.506;8.966;2023-05-20T12:28:52;4.13;;;3.83;;
23088;SDS011;11713;48.506;8.966;2023-05-20T12:31:18;4.63;;;4.22;;
23088;SDS011;11713;48.506;8.966;2023-05-20T12:33:45;4.88;;;4.35;;
23088;SDS011;11713;48.506;8.966;2023-05-20T12:36:11;4.50;;;3.97;;
23088;SDS011;11713;48.506;8.966;2023-05-20T12:38:37;7.03;;;4.30;;
23088;SDS011;11713;48.506;8.966;2023-05-20T12:41:03;4.72;;;4.28;;
23088;SDS011;11713;48.506;8.966;2023-05-20T12:43:29;4.60;;;4.20;;
23088;SDS011;11713;48.506;8.966;2023-05-20T12:45:55;4.65;;;3.92;;
23088;SDS011;11713;48.506;8.966;2023-05-20T12:48:20;4.00;;;3.63;;
23088;SDS011;11713;48.506;8.966;2023-05-20T12:50:46;4.90;;;3.83;;
23088;SDS011;11713;48.506;8.966;2023-05-20T12:53:12;5.50;;;4.05;;
23088;SDS011;11713;48.506;8.966;2023-05-20T12:55:38;4.65;;;4.07;;
23088;SDS011;11713;48.506;8.966;2023-05-20T12:58:04;5.13;;;3.90;;
23088;SDS011;11713;48.506;8.966;2023-05-20T13:00:33;4.68;;;4.28;;
23088;SDS011;11713;48.506;8.966;2023-05-20T13:02:59;4.22;;;3.83;;
23088;SDS011;11713;48.506;8.966;2023-05-20T13:05:25;15.30;;;10.30;;
23088;SDS011;11713;48.506;8.966;2023-05-20T13:07:51;5.13;;;4.15;;
23088;SDS011;11713;48.506;8.966;2023-05-20T13:10:16;4.40;;;4.00;;
23088;SDS011;11713;48.506;8.966;2023-05-20T13:12:43;15.10;;;8.65;;
23088;SDS011;11713;48.506;8.966;2023-05-20T13:15:13;5.53;;;4.35;;
23088;SDS011;11713;48.506;8.966;2023-05-20T13:17:39;6.28;;;4.15;;
23088;SDS011;11713;48.506;8.966;2023-05-20T13:20:06;4.07;;;3.67;;
23088;SDS011;11713;48.506;8.966;2023-05-20T13:22:33;4.70;;;4.20;;
23088;SDS011;11713;48.506;8.966;2023-05-20T13:24:59;5.43;;;4.20;;
23088;SDS011;11713;48.506;8.966;2023-05-20T13:27:25;11.73;;;5.10;;
23088;SDS011;11713;48.506;8.966;2023-05-20T13:29:51;4.35;;;3.75;;
23088;SDS011;11713;48.506;8.966;2023-05-20T13:32:16;4.40;;;4.00;;
23088;SDS011;11713;48.506;8.966;2023-05-20T13:34:42;4.57;;;3.67;;
23088;SDS011;11713;48.506;8.966;2023-05-20T13:37:08;8.45;;;4.43;;
23088;SDS011;11713;48.506;8.966;2023-05-20T13:39:34;5.38;;;4.07;;
23088;SDS011;11713;48.506;8.966;2023-05-20T13:42:00;4.55;;;4.05;;
23088;SDS011;11713;48.506;8.966;2023-05-20T13:44:26;5.53;;;4.15;;
23088;SDS011;11713;48.506;8.966;2023-05-20T13:46:52;4.32;;;3.92;;
23088;SDS011;11713;48.506;8.966;2023-05-20T13:49:18;4.82;;;4.30;;
23088;SDS011;11713;48.506;8.966;2023-05-20T13:51:44;4.60;;;4.15;;
23088;SDS011;11713;48.506;8.966;2023-05-20T13:54:10;4.07;;;3.67;;
23088;SDS011;11713;48.506;8.966;2023-05-20T13:56:36;3.55;;;3.25;;
23088;SDS011;11713;48.506;8.966;2023-05-20T13:59:02;3.85;;;3.55;;
23088;SDS011;11713;48.506;8.966;2023-05-20T14:01:29;4.65;;;3.40;;
23088;SDS011;11713;48.506;8.966;2023-05-20T14:03:57;3.85;;;3.35;;
23088;SDS011;11713;48.506;8.966;2023-05-20T14:06:23;5.10;;;4.43;;
23088;SDS011;11713;48.506;8.966;2023-05-20T14:08:52;4.57;;;3.53;;
23088;SDS011;11713;48.506;8.966;2023-05-20T14:11:19;4.15;;;3.65;;
23088;SDS011;11713;48.506;8.966;2023-05-20T14:13:45;4.78;;;3.90;;
23088;SDS011;11713;48.506;8.966;2023-05-20T14:16:11;4.45;;;3.72;;
23088;SDS011;11713;48.506;8.966;2023-05-20T14:18:37;4.32;;;3.88;;
23088;SDS011;11713;48.506;8.966;2023-05-20T14:21:03;3.97;;;3.63;;
23088;SDS011;11713;48.506;8.966;2023-05-20T14:23:30;5.25;;;3.75;;
23088;SDS011;11713;48.506;8.966;2023-05-20T14:25:57;4.70;;;4.18;;
23088;SDS011;11713;48.506;8.966;2023-05-20T14:28:30;4.47;;;3.80;;
23088;SDS011;11713;48.506;8.966;2023-05-20T14:31:11;4.22;;;3.83;;
23088;SDS011;11713;48.506;8.966;2023-05-20T14:33:38;4.50;;;4.10;;
23088;SDS011;11713;48.506;8.966;2023-05-20T14:36:07;3.83;;;3.45;;
23088;SDS011;11713;48.506;8.966;2023-05-20T14:38:40;4.40;;;4.00;;
23088;SDS011;11713;48.506;8.966;2023-05-20T14:41:09;3.90;;;3.55;;
23088;SDS011;11713;48.506;8.966;2023-05-20T14:43:38;4.32;;;3.75;;
23088;SDS011;11713;48.506;8.966;2023-05-20T14:46:08;4.28;;;3.22;;
23088;SDS011;11713;48.506;8.966;2023-05-20T14:48:36;4.45;;;3.60;;
23088;SDS011;11713;48.506;8.966;2023-05-20T14:51:03;4.20;;;3.58;;
23088;SDS011;11713;48.506;8.966;2023-05-20T14:53:29;5.85;;;3.55;;
23088;SDS011;11713;48.506;8.966;2023-05-20T14:55:56;4.05;;;3.58;;